createdAt,value
2018-07-31T00:02:13.387Z,5.20
2018-07-31T00:04:42.695Z,5.20
2018-07-31T00:07:11.207Z,5.37
2018-07-31T00:09:41.339Z,5.17
2018-07-31T00:12:09.766Z,5.50
2018-07-31T00:14:38.353Z,4.90
2018-07-31T00:17:06.778Z,5.40
2018-07-31T00:19:35.299Z,5.25
2018-07-31T00:22:03.899Z,5.50
2018-07-31T00:24:32.444Z,5.12
2018-07-31T00:27:00.983Z,5.42
2018-07-31T00:29:29.420Z,5.10
2018-07-31T00:31:58.931Z,5.15
2018-07-31T00:34:27.504Z,5.97
2018-07-31T00:36:56.254Z,5.40
2018-07-31T00:39:24.702Z,5.20
2018-07-31T00:41:53.239Z,5.92
2018-07-31T00:44:22.744Z,5.50
2018-07-31T00:46:51.331Z,5.83
2018-07-31T00:49:19.750Z,5.83
2018-07-31T00:51:48.278Z,5.83
2018-07-31T00:54:16.695Z,5.60
2018-07-31T00:56:45.189Z,5.00
2018-07-31T00:59:13.925Z,5.93
2018-07-31T01:01:43.283Z,5.40
2018-07-31T01:04:12.976Z,4.95
2018-07-31T01:06:42.255Z,6.07
2018-07-31T01:09:11.899Z,5.33
2018-07-31T01:11:40.927Z,5.30
2018-07-31T01:14:10.186Z,5.60
2018-07-31T01:16:40.483Z,5.80
2018-07-31T01:19:09.924Z,5.60
2018-07-31T01:21:38.458Z,5.28
2018-07-31T01:24:08.517Z,5.35
2018-07-31T01:26:37.551Z,5.33
2018-07-31T01:29:06.357Z,5.40
2018-07-31T01:31:34.758Z,5.80
2018-07-31T01:34:03.293Z,5.85
2018-07-31T01:36:31.838Z,5.87
2018-07-31T01:39:00.641Z,6.05
2018-07-31T01:41:30.078Z,5.50
2018-07-31T01:43:59.794Z,5.12
2018-07-31T01:46:28.691Z,5.92
2018-07-31T01:48:57.172Z,5.40
2018-07-31T01:51:25.622Z,5.72
2018-07-31T01:53:54.380Z,5.28
2018-07-31T01:56:23.600Z,5.55
2018-07-31T01:58:52.560Z,5.62
2018-07-31T02:01:21.313Z,5.65
2018-07-31T02:03:49.738Z,5.20
2018-07-31T02:06:18.339Z,5.80
2018-07-31T02:08:46.900Z,6.53
2018-07-31T02:11:15.905Z,6.78
2018-07-31T02:13:44.419Z,5.70
2018-07-31T02:16:12.826Z,5.75
2018-07-31T02:18:41.512Z,5.92
2018-07-31T02:21:10.033Z,6.00
2018-07-31T02:23:38.458Z,6.12
2018-07-31T02:26:06.913Z,6.63
2018-07-31T02:28:37.620Z,6.80
2018-07-31T02:31:06.414Z,5.97
2018-07-31T02:33:35.071Z,6.67
2018-07-31T02:36:04.318Z,6.40
2018-07-31T02:38:35.104Z,6.87
2018-07-31T02:41:04.859Z,6.08
2018-07-31T02:43:33.454Z,6.78
2018-07-31T02:46:01.976Z,6.60
2018-07-31T02:48:30.459Z,6.08
2018-07-31T02:50:58.977Z,6.50
2018-07-31T02:53:27.472Z,5.72
2018-07-31T02:55:55.961Z,6.53
2018-07-31T02:58:24.468Z,6.10
2018-07-31T03:00:52.939Z,6.35
2018-07-31T03:03:21.493Z,6.78
2018-07-31T03:05:49.908Z,6.62
2018-07-31T03:08:19.343Z,6.43
2018-07-31T03:10:48.019Z,6.00
2018-07-31T03:13:16.728Z,6.40
2018-07-31T03:15:45.909Z,6.78
2018-07-31T03:18:15.448Z,6.33
2018-07-31T03:20:44.050Z,6.22
2018-07-31T03:23:12.518Z,6.20
2018-07-31T03:25:41.586Z,6.47
2018-07-31T03:28:10.850Z,6.25
2018-07-31T03:30:39.508Z,5.87
2018-07-31T03:33:09.086Z,6.30
2018-07-31T03:35:37.809Z,5.95
2018-07-31T03:38:06.249Z,6.20
2018-07-31T03:40:34.847Z,6.00
2018-07-31T03:43:04.278Z,6.22
2018-07-31T03:45:32.791Z,6.65
2018-07-31T03:48:01.329Z,6.08
2018-07-31T03:50:29.878Z,6.83
2018-07-31T03:52:59.309Z,6.45
2018-07-31T03:55:28.383Z,6.28
2018-07-31T03:58:00.680Z,6.58
2018-07-31T04:00:29.665Z,5.97
2018-07-31T04:02:58.319Z,6.08
2018-07-31T04:05:26.821Z,6.35
2018-07-31T04:07:55.403Z,6.50
2018-07-31T04:10:23.962Z,6.15
2018-07-31T04:12:52.682Z,6.62
2018-07-31T04:15:21.232Z,6.30
2018-07-31T04:17:53.161Z,6.53
2018-07-31T04:20:22.947Z,6.17
2018-07-31T04:22:55.613Z,6.70
2018-07-31T04:25:24.739Z,6.30
2018-07-31T04:27:55.636Z,6.12
2018-07-31T04:30:25.328Z,5.90
2018-07-31T04:32:53.779Z,6.55
2018-07-31T04:35:23.105Z,6.85
2018-07-31T04:37:52.035Z,6.72
2018-07-31T04:40:20.533Z,6.30
2018-07-31T04:42:49.052Z,6.30
2018-07-31T04:45:17.637Z,6.15
2018-07-31T04:47:46.989Z,6.10
2018-07-31T04:50:16.482Z,5.90
2018-07-31T04:52:49.088Z,6.12
2018-07-31T04:55:19.829Z,6.60
2018-07-31T04:57:49.300Z,6.60
2018-07-31T05:00:18.480Z,6.10
2018-07-31T05:02:47.002Z,6.22
2018-07-31T05:05:17.429Z,6.23
2018-07-31T05:07:46.704Z,6.35
2018-07-31T05:10:17.092Z,6.15
2018-07-31T05:12:46.083Z,6.10
2018-07-31T05:15:16.864Z,6.53
2018-07-31T05:17:46.476Z,6.42
2018-07-31T05:20:16.008Z,6.20
2018-07-31T05:22:45.057Z,6.28
2018-07-31T05:25:17.136Z,5.65
2018-07-31T05:27:45.596Z,6.47
2018-07-31T05:30:16.223Z,6.80
2018-07-31T05:32:44.826Z,6.40
2018-07-31T05:35:13.450Z,6.17
2018-07-31T05:37:41.939Z,6.55
2018-07-31T05:40:11.842Z,5.90
2018-07-31T05:42:40.304Z,6.42
2018-07-31T05:45:10.472Z,6.10
2018-07-31T05:47:40.109Z,6.10
2018-07-31T05:50:10.261Z,5.73
2018-07-31T05:52:39.563Z,6.17
2018-07-31T05:55:08.277Z,6.25
2018-07-31T05:57:38.403Z,6.15
2018-07-31T06:00:08.361Z,6.17
2018-07-31T06:02:37.050Z,6.10
2018-07-31T06:05:06.452Z,6.03
2018-07-31T06:07:35.867Z,6.60
2018-07-31T06:10:06.448Z,5.90
2018-07-31T06:12:35.188Z,5.85
2018-07-31T06:15:03.798Z,5.50
2018-07-31T06:17:32.391Z,5.85
2018-07-31T06:20:01.590Z,6.05
2018-07-31T06:22:30.034Z,6.17
2018-07-31T06:25:00.021Z,6.17
2018-07-31T06:27:28.507Z,6.92
2018-07-31T06:29:59.728Z,6.25
2018-07-31T06:32:31.248Z,6.40
2018-07-31T06:35:00.157Z,5.60
2018-07-31T06:37:28.659Z,5.50
2018-07-31T06:39:57.799Z,6.20
2018-07-31T06:42:28.259Z,5.50
2018-07-31T06:44:58.026Z,5.95
2018-07-31T06:47:27.059Z,5.92
2018-07-31T06:49:55.583Z,5.65
2018-07-31T06:52:24.960Z,5.95
2018-07-31T06:54:54.977Z,6.37
2018-07-31T06:58:54.727Z,6.87
2018-07-31T07:01:23.876Z,5.95
2018-07-31T07:03:52.870Z,6.28
2018-07-31T07:06:22.029Z,5.90
2018-07-31T07:08:50.591Z,6.10
2018-07-31T07:11:21.959Z,5.97
2018-07-31T07:13:52.407Z,6.65
2018-07-31T07:16:22.797Z,6.60
2018-07-31T07:18:59.831Z,6.17
2018-07-31T07:21:32.222Z,6.85
2018-07-31T07:24:00.649Z,6.12
2018-07-31T07:26:30.739Z,5.50
2018-07-31T07:29:25.097Z,6.12
2018-07-31T07:31:53.640Z,6.42
2018-07-31T07:34:22.108Z,6.00
2018-07-31T07:36:52.232Z,6.15
2018-07-31T07:39:23.097Z,5.53
2018-07-31T07:41:52.180Z,6.03
2018-07-31T07:44:21.452Z,5.67
2018-07-31T07:46:50.138Z,5.70
2018-07-31T07:49:18.684Z,6.28
2018-07-31T07:51:47.274Z,5.90
2018-07-31T07:54:16.340Z,6.15
2018-07-31T07:56:44.899Z,5.78
2018-07-31T07:59:13.472Z,6.40
2018-07-31T08:01:42.251Z,5.92
2018-07-31T08:04:10.812Z,5.60
2018-07-31T08:06:39.178Z,5.87
2018-07-31T08:09:10.286Z,5.97
2018-07-31T08:11:38.748Z,5.90
2018-07-31T08:14:07.451Z,5.53
2018-07-31T08:16:36.200Z,6.30
2018-07-31T08:19:05.572Z,6.37
2018-07-31T08:21:34.264Z,6.15
2018-07-31T08:24:02.789Z,5.75
2018-07-31T08:26:31.498Z,6.12
2018-07-31T08:28:59.956Z,6.50
2018-07-31T08:31:28.385Z,6.20
2018-07-31T08:33:57.727Z,5.65
2018-07-31T08:36:26.311Z,5.25
2018-07-31T08:38:54.817Z,5.53
2018-07-31T08:41:24.087Z,4.72
2018-07-31T08:43:53.647Z,6.20
2018-07-31T08:46:22.373Z,6.05
2018-07-31T08:48:52.007Z,6.10
2018-07-31T08:51:24.498Z,5.53
2018-07-31T08:53:52.986Z,6.83
2018-07-31T08:56:21.482Z,5.65
2018-07-31T08:58:49.869Z,6.15
2018-07-31T09:01:20.633Z,6.60
2018-07-31T09:03:49.056Z,5.40
2018-07-31T09:06:18.720Z,5.40
2018-07-31T09:08:47.287Z,5.37
2018-07-31T09:11:15.678Z,5.47
2018-07-31T09:13:44.253Z,5.12
2018-07-31T09:16:12.772Z,5.65
2018-07-31T09:18:42.390Z,6.00
2018-07-31T09:21:11.846Z,5.95
2018-07-31T09:23:40.741Z,5.58
2018-07-31T09:26:09.240Z,5.28
2018-07-31T09:28:37.680Z,5.10
2018-07-31T09:31:11.381Z,5.62
2018-07-31T09:33:39.817Z,5.08
2018-07-31T09:36:08.195Z,4.97
2018-07-31T09:38:36.627Z,5.47
2018-07-31T09:41:05.365Z,4.92
2018-07-31T09:43:34.761Z,5.30
2018-07-31T09:46:03.986Z,4.97
2018-07-31T09:48:32.415Z,5.12
2018-07-31T09:51:01.681Z,5.17
2018-07-31T09:53:30.133Z,5.22
2018-07-31T09:55:58.831Z,5.12
2018-07-31T09:58:27.528Z,5.12
2018-07-31T10:01:02.187Z,5.17
2018-07-31T10:03:30.801Z,5.10
2018-07-31T10:05:59.275Z,6.25
2018-07-31T10:08:27.700Z,5.83
2018-07-31T10:10:56.474Z,6.20
2018-07-31T10:13:25.439Z,5.80
2018-07-31T10:15:53.886Z,6.20
2018-07-31T10:18:22.463Z,6.33
2018-07-31T10:20:52.567Z,5.92
2018-07-31T10:23:21.024Z,6.42
2018-07-31T10:25:49.581Z,6.35
2018-07-31T10:28:19.036Z,6.28
2018-07-31T10:30:49.298Z,5.85
2018-07-31T10:33:18.389Z,6.22
2018-07-31T10:35:46.850Z,5.72
2018-07-31T10:38:15.326Z,5.75
2018-07-31T10:40:43.832Z,5.62
2018-07-31T10:43:13.099Z,6.33
2018-07-31T10:45:42.495Z,6.10
2018-07-31T10:48:11.836Z,5.97
2018-07-31T10:50:40.250Z,5.67
2018-07-31T10:53:08.869Z,6.20
2018-07-31T10:55:37.723Z,6.67
2018-07-31T10:58:06.636Z,6.45
2018-07-31T11:00:35.383Z,6.03
2018-07-31T11:03:09.836Z,5.65
2018-07-31T11:05:38.357Z,6.00
2018-07-31T11:08:07.410Z,5.80
2018-07-31T11:10:36.440Z,5.28
2018-07-31T11:13:04.975Z,5.90
2018-07-31T11:15:33.351Z,5.50
2018-07-31T11:18:02.597Z,5.53
2018-07-31T11:20:31.274Z,5.45
2018-07-31T11:22:59.811Z,5.70
2018-07-31T11:25:28.324Z,5.80
2018-07-31T11:27:56.873Z,5.37
2018-07-31T11:30:25.369Z,4.92
2018-07-31T11:32:54.103Z,5.28
2018-07-31T11:35:23.376Z,6.08
2018-07-31T11:37:51.880Z,5.30
2018-07-31T11:40:21.323Z,5.37
2018-07-31T11:42:49.753Z,5.58
2018-07-31T11:45:18.235Z,4.87
2018-07-31T11:47:48.531Z,5.17
2018-07-31T11:50:17.249Z,5.25
2018-07-31T11:52:46.159Z,5.22
2018-07-31T11:55:14.628Z,5.30
2018-07-31T11:57:44.215Z,5.17
2018-07-31T12:00:14.314Z,5.05
2018-07-31T12:02:43.345Z,4.25
2018-07-31T12:05:13.134Z,5.05
2018-07-31T12:07:41.908Z,5.45
2018-07-31T12:10:11.415Z,5.30
2018-07-31T12:12:40.012Z,4.85
2018-07-31T12:15:08.803Z,5.05
2018-07-31T12:17:37.925Z,4.95
2018-07-31T12:20:06.447Z,4.80
2018-07-31T12:22:35.592Z,4.42
2018-07-31T12:25:04.169Z,4.87
2018-07-31T12:27:32.652Z,5.12
2018-07-31T12:30:01.062Z,5.05
2018-07-31T12:32:29.994Z,5.10
2018-07-31T12:34:58.587Z,5.00
2018-07-31T12:37:27.513Z,8.50
2018-07-31T12:39:56.048Z,5.33
2018-07-31T12:42:24.589Z,6.15
2018-07-31T12:44:54.343Z,4.80
2018-07-31T12:47:22.897Z,4.42
2018-07-31T12:49:51.555Z,5.10
2018-07-31T12:52:21.865Z,5.50
2018-07-31T12:54:51.594Z,4.72
2018-07-31T12:57:21.711Z,5.20
2018-07-31T12:59:50.513Z,4.95
2018-07-31T13:02:19.794Z,4.50
2018-07-31T13:04:49.100Z,4.72
2018-07-31T13:07:18.121Z,4.62
2018-07-31T13:09:47.204Z,4.90
2018-07-31T13:12:15.788Z,4.00
2018-07-31T13:14:44.679Z,4.10
2018-07-31T13:17:14.759Z,3.90
2018-07-31T13:19:43.315Z,3.92
2018-07-31T13:22:11.822Z,4.62
2018-07-31T13:24:40.198Z,6.50
2018-07-31T13:27:08.696Z,4.05
2018-07-31T13:29:38.181Z,3.70
2018-07-31T13:32:07.765Z,3.47
2018-07-31T13:34:36.393Z,4.40
2018-07-31T13:37:05.115Z,4.30
2018-07-31T13:39:33.788Z,4.72
2018-07-31T13:42:02.304Z,3.87
2018-07-31T13:44:30.817Z,3.60
2018-07-31T13:46:59.499Z,4.10
2018-07-31T13:49:28.118Z,5.25
2018-07-31T13:51:57.191Z,4.15
2018-07-31T13:54:25.850Z,3.65
2018-07-31T13:56:55.175Z,3.50
2018-07-31T13:59:24.166Z,3.90
2018-07-31T14:01:53.268Z,3.67
2018-07-31T14:04:22.320Z,3.95
2018-07-31T14:06:51.590Z,3.37
2018-07-31T14:09:20.071Z,3.70
2018-07-31T14:11:48.616Z,5.12
2018-07-31T14:14:17.821Z,3.98
2018-07-31T14:16:47.285Z,3.72
2018-07-31T14:19:16.203Z,3.80
2018-07-31T14:21:45.518Z,3.12
2018-07-31T14:24:14.177Z,3.62
2018-07-31T14:26:43.668Z,4.47
2018-07-31T14:29:13.786Z,3.50
2018-07-31T14:31:43.069Z,3.58
2018-07-31T14:34:11.969Z,3.80
2018-07-31T14:36:40.896Z,3.80
2018-07-31T14:39:11.181Z,4.20
2018-07-31T14:41:40.582Z,3.35
2018-07-31T14:44:09.261Z,3.45
2018-07-31T14:46:39.829Z,3.22
2018-07-31T14:49:08.946Z,3.92
2018-07-31T14:51:37.968Z,3.20
2018-07-31T14:54:07.250Z,3.15
2018-07-31T14:56:35.770Z,4.65
2018-07-31T14:59:05.060Z,3.35
2018-07-31T15:01:35.442Z,4.17
2018-07-31T15:04:04.025Z,4.08
2018-07-31T15:06:32.780Z,3.15
2018-07-31T15:09:01.451Z,3.58
2018-07-31T15:11:30.961Z,3.30
2018-07-31T15:14:00.462Z,3.02
2018-07-31T15:16:29.908Z,3.50
2018-07-31T15:18:58.433Z,3.40
2018-07-31T15:21:29.546Z,3.20
2018-07-31T15:23:58.077Z,3.52
2018-07-31T15:26:31.716Z,3.30
2018-07-31T15:29:00.567Z,3.40
2018-07-31T15:31:29.129Z,3.40
2018-07-31T15:33:59.335Z,3.58
2018-07-31T15:36:28.910Z,3.45
2018-07-31T15:38:57.868Z,3.72
2018-07-31T15:41:26.833Z,3.47
2018-07-31T15:43:55.901Z,3.15
2018-07-31T15:46:24.997Z,3.17
2018-07-31T15:48:54.540Z,4.15
2018-07-31T15:51:24.105Z,5.00
2018-07-31T15:53:52.968Z,3.17
2018-07-31T15:56:22.514Z,2.70
2018-07-31T15:58:53.312Z,3.33
2018-07-31T16:01:21.981Z,3.22
2018-07-31T16:03:51.225Z,3.12
2018-07-31T16:06:20.822Z,3.62
2018-07-31T16:08:50.429Z,3.05
2018-07-31T16:11:24.677Z,4.00
2018-07-31T16:13:54.194Z,3.30
2018-07-31T16:16:23.028Z,3.87
2018-07-31T16:18:53.045Z,4.67
2018-07-31T16:21:23.329Z,3.22
2018-07-31T16:23:54.027Z,3.37
2018-07-31T16:26:24.295Z,2.98
2018-07-31T16:28:52.879Z,3.33
2018-07-31T16:31:21.400Z,3.92
2018-07-31T16:33:50.345Z,2.90
2018-07-31T16:36:19.808Z,3.30
2018-07-31T16:38:48.297Z,5.08
2018-07-31T16:41:21.394Z,3.75
2018-07-31T16:43:53.277Z,3.17
2018-07-31T16:46:21.840Z,3.72
2018-07-31T16:48:51.524Z,3.42
2018-07-31T16:51:20.830Z,2.83
2018-07-31T16:53:50.001Z,3.95
2018-07-31T16:56:18.825Z,4.40
2018-07-31T16:58:48.073Z,3.12
2018-07-31T17:01:17.447Z,3.52
2018-07-31T17:03:46.864Z,2.90
2018-07-31T17:06:15.463Z,3.55
2018-07-31T17:08:44.865Z,2.98
2018-07-31T17:11:14.050Z,2.95
2018-07-31T17:13:44.624Z,3.20
2018-07-31T17:16:14.190Z,3.08
2018-07-31T17:18:44.049Z,3.20
2018-07-31T17:21:13.499Z,3.33
2018-07-31T17:23:43.562Z,2.85
2018-07-31T17:26:13.968Z,2.62
2018-07-31T17:28:43.277Z,3.20
2018-07-31T17:31:14.439Z,2.75
2018-07-31T17:33:45.166Z,4.15
2018-07-31T17:36:14.555Z,2.58
2018-07-31T17:38:44.538Z,3.30
2018-07-31T17:41:13.327Z,3.17
2018-07-31T17:43:41.820Z,2.65
2018-07-31T17:46:10.306Z,3.67
2018-07-31T17:48:39.807Z,3.22
2018-07-31T17:51:09.044Z,2.80
2018-07-31T17:53:38.128Z,2.77
2018-07-31T17:56:06.524Z,2.98
2018-07-31T17:58:37.190Z,3.20
2018-07-31T18:01:05.900Z,3.70
2018-07-31T18:03:35.091Z,3.02
2018-07-31T18:06:04.417Z,4.00
2018-07-31T18:08:32.847Z,4.72
2018-07-31T18:11:01.710Z,6.05
2018-07-31T18:13:30.694Z,4.42
2018-07-31T18:15:59.232Z,7.28
2018-07-31T18:19:57.238Z,6.20
2018-07-31T18:22:25.766Z,6.05
2018-07-31T18:24:54.179Z,8.50
2018-07-31T18:27:22.748Z,5.87
2018-07-31T18:29:53.391Z,7.05
2018-07-31T18:32:22.637Z,4.78
2018-07-31T18:34:52.793Z,6.25
2018-07-31T18:37:22.301Z,7.35
2018-07-31T18:39:51.217Z,7.47
2018-07-31T18:42:20.568Z,6.00
2018-07-31T18:44:51.706Z,5.75
2018-07-31T18:47:22.104Z,5.10
2018-07-31T18:49:54.520Z,3.33
2018-07-31T18:52:22.943Z,6.37
2018-07-31T18:54:51.669Z,3.72
2018-07-31T18:57:21.600Z,3.72
2018-07-31T18:59:50.585Z,7.87
2018-07-31T19:02:19.301Z,6.62
2018-07-31T19:04:48.031Z,4.90
2018-07-31T19:07:17.085Z,4.95
2018-07-31T19:09:46.054Z,3.67
2018-07-31T19:12:17.068Z,3.55
2018-07-31T19:14:46.334Z,5.97
2018-07-31T19:17:15.825Z,5.40
2018-07-31T19:19:46.280Z,3.90
2018-07-31T19:22:15.366Z,4.80
2018-07-31T19:24:44.226Z,3.27
2018-07-31T19:27:13.136Z,5.10
2018-07-31T19:29:42.315Z,4.40
2018-07-31T19:32:11.947Z,5.00
2018-07-31T19:34:41.162Z,5.37
2018-07-31T19:37:09.902Z,5.58
2018-07-31T19:39:38.625Z,5.40
2018-07-31T19:42:07.708Z,6.10
2018-07-31T19:44:39.652Z,4.95
2018-07-31T19:47:08.693Z,6.97
2018-07-31T19:49:39.180Z,5.87
2018-07-31T19:52:07.676Z,4.45
2018-07-31T19:54:36.362Z,4.97
2018-07-31T19:57:05.849Z,5.08
2018-07-31T19:59:34.462Z,3.60
2018-07-31T20:02:03.103Z,4.90
2018-07-31T20:04:32.770Z,4.10
2018-07-31T20:07:03.166Z,4.45
2018-07-31T20:09:32.964Z,4.55
2018-07-31T20:12:03.259Z,7.00
2018-07-31T20:14:32.330Z,12.00
2018-07-31T20:17:01.550Z,3.90
2018-07-31T20:19:31.262Z,6.33
2018-07-31T20:21:59.935Z,3.47
2018-07-31T20:24:30.604Z,4.87
2018-07-31T20:26:59.379Z,5.47
2018-07-31T20:29:28.882Z,4.50
2018-07-31T20:31:57.531Z,4.47
2018-07-31T20:34:27.046Z,3.87
2018-07-31T20:36:59.629Z,3.30
2018-07-31T20:39:29.319Z,3.12
2018-07-31T20:41:58.005Z,5.65
2018-07-31T20:44:27.862Z,4.03
2018-07-31T20:46:56.476Z,5.45
2018-07-31T20:49:26.092Z,3.20
2018-07-31T20:51:55.084Z,4.00
2018-07-31T20:54:41.126Z,3.58
2018-07-31T20:57:09.777Z,2.95
2018-07-31T20:59:38.444Z,3.67
2018-07-31T21:02:07.414Z,5.03
2018-07-31T21:04:36.369Z,4.40
2018-07-31T21:07:05.401Z,3.17
2018-07-31T21:09:33.872Z,3.72
2018-07-31T21:12:03.357Z,4.22
2018-07-31T21:14:34.195Z,2.95
2018-07-31T21:17:03.693Z,3.75
2018-07-31T21:19:32.285Z,3.77
2018-07-31T21:22:00.891Z,3.67
2018-07-31T21:24:29.566Z,3.45
2018-07-31T21:26:58.171Z,4.12
2018-07-31T21:29:28.837Z,4.47
2018-07-31T21:31:59.471Z,3.22
2018-07-31T21:34:29.186Z,3.27
2018-07-31T21:36:59.803Z,3.40
2018-07-31T21:39:29.098Z,2.58
2018-07-31T21:41:59.646Z,4.40
2018-07-31T21:44:30.080Z,3.50
2018-07-31T21:46:59.697Z,3.42
2018-07-31T21:49:29.046Z,3.40
2018-07-31T21:51:58.809Z,2.87
2018-07-31T21:54:28.134Z,3.52
2018-07-31T21:56:57.217Z,2.45
2018-07-31T21:59:27.628Z,2.75
2018-07-31T22:01:57.764Z,4.22
2018-07-31T22:04:26.323Z,3.75
2018-07-31T22:06:59.364Z,4.33
2018-07-31T22:09:33.606Z,4.17
2018-07-31T22:12:08.969Z,3.35
2018-07-31T22:14:38.140Z,3.12
2018-07-31T22:17:10.906Z,2.40
2018-07-31T22:19:40.497Z,4.03
2018-07-31T22:22:12.434Z,3.42
2018-07-31T22:24:41.183Z,2.98
2018-07-31T22:27:11.645Z,3.27
2018-07-31T22:29:41.614Z,3.72
2018-07-31T22:32:11.256Z,2.80
2018-07-31T22:34:41.268Z,3.20
2018-07-31T22:37:11.673Z,4.37
2018-07-31T22:39:40.682Z,3.25
2018-07-31T22:42:09.843Z,3.30
2018-07-31T22:44:40.185Z,4.22
2018-07-31T22:47:09.299Z,3.15
2018-07-31T22:49:39.281Z,2.87
2018-07-31T22:52:08.484Z,2.62
2018-07-31T22:54:37.590Z,3.22
2018-07-31T22:57:06.151Z,2.70
2018-07-31T22:59:36.249Z,2.55
2018-07-31T23:02:04.715Z,2.15
2018-07-31T23:04:34.011Z,2.42
2018-07-31T23:07:05.335Z,2.70
2018-07-31T23:09:34.364Z,3.33
2018-07-31T23:12:03.523Z,2.60
2018-07-31T23:14:33.252Z,2.30
2018-07-31T23:17:02.352Z,4.28
2018-07-31T23:19:30.804Z,3.37
2018-07-31T23:21:59.410Z,2.90
2018-07-31T23:24:28.035Z,2.37
2018-07-31T23:26:56.817Z,2.70
2018-07-31T23:29:25.507Z,2.70
2018-07-31T23:31:54.569Z,3.10
2018-07-31T23:34:24.291Z,3.60
2018-07-31T23:36:53.838Z,3.15
2018-07-31T23:39:24.187Z,2.30
2018-07-31T23:41:53.477Z,3.95
2018-07-31T23:44:22.503Z,2.42
2018-07-31T23:46:52.511Z,2.20
2018-07-31T23:49:21.876Z,1.90
2018-07-31T23:51:51.192Z,1.70
2018-07-31T23:54:19.862Z,1.60
2018-07-31T23:56:49.009Z,1.50
2018-07-31T23:59:18.616Z,1.90
